createdAt,value
2019-01-02T00:03:51.024Z,51.9
2019-01-02T00:08:49.414Z,51.9
2019-01-02T00:13:47.713Z,51.9
2019-01-02T00:18:45.454Z,51.9
2019-01-02T00:23:43.679Z,51.9
2019-01-02T00:28:42.422Z,51.9
2019-01-02T00:33:41.403Z,51.8
2019-01-02T00:38:40.325Z,51.8
2019-01-02T00:43:39.119Z,51.8
2019-01-02T00:48:37.787Z,51.8
2019-01-02T00:53:36.064Z,51.8
2019-01-02T00:58:33.643Z,51.8
2019-01-02T01:03:32.165Z,51.8
2019-01-02T01:08:31.149Z,51.7
2019-01-02T01:13:29.793Z,51.7
2019-01-02T01:18:28.927Z,51.7
2019-01-02T01:23:27.218Z,51.7
2019-01-02T01:28:25.497Z,51.7
2019-01-02T01:33:23.842Z,51.7
2019-01-02T01:38:21.912Z,51.7
2019-01-02T01:43:20.827Z,51.7
2019-01-02T01:48:19.195Z,51.7
2019-01-02T01:53:17.671Z,51.7
2019-01-02T01:58:16.203Z,51.7
2019-01-02T02:03:14.782Z,51.7
2019-01-02T02:08:13.247Z,51.8
2019-01-02T02:13:11.638Z,51.8
2019-01-02T02:18:10.155Z,51.8
2019-01-02T02:23:08.584Z,51.8
2019-01-02T02:28:07.116Z,51.8
2019-01-02T02:33:05.489Z,51.8
2019-01-02T02:38:04.078Z,51.8
2019-01-02T02:43:02.746Z,51.9
2019-01-02T02:48:00.994Z,51.8
2019-01-02T02:52:59.654Z,51.9
2019-01-02T02:57:58.202Z,51.9
2019-01-02T03:02:56.467Z,51.9
2019-01-02T03:07:54.994Z,51.9
2019-01-02T03:12:53.865Z,51.9
2019-01-02T03:17:52.277Z,51.9
2019-01-02T03:22:50.884Z,51.9
2019-01-02T03:27:49.583Z,52
2019-01-02T03:32:48.507Z,52
2019-01-02T03:37:47.009Z,52
2019-01-02T03:42:45.371Z,52
2019-01-02T03:47:43.704Z,52
2019-01-02T03:52:41.727Z,52
2019-01-02T03:57:40.038Z,52
2019-01-02T04:02:38.118Z,52
2019-01-02T04:07:36.411Z,52
2019-01-02T04:12:34.571Z,52
2019-01-02T04:17:33.114Z,52.1
2019-01-02T04:22:31.306Z,52.1
2019-01-02T04:27:29.534Z,52.1
2019-01-02T04:32:27.789Z,52.1
2019-01-02T04:37:26.017Z,52.1
2019-01-02T04:42:24.284Z,52.1
2019-01-02T04:47:22.729Z,52.1
2019-01-02T04:52:20.430Z,52.1
2019-01-02T04:57:18.726Z,52.1
2019-01-02T05:02:16.360Z,52.1
2019-01-02T05:07:14.740Z,52.1
2019-01-02T05:12:12.924Z,52.1
2019-01-02T05:17:10.856Z,52.1
2019-01-02T05:22:08.815Z,52.1
2019-01-02T05:27:06.961Z,52.1
2019-01-02T05:32:05.143Z,52.1
2019-01-02T05:37:03.557Z,52.1
2019-01-02T05:42:01.788Z,52.1
2019-01-02T05:46:59.980Z,52.1
2019-01-02T05:51:58.245Z,52.1
2019-01-02T05:56:56.653Z,52.1
2019-01-02T06:01:54.999Z,52.1
2019-01-02T06:06:53.106Z,52.1
2019-01-02T06:11:51.054Z,52.1
2019-01-02T06:16:49.307Z,52.1
2019-01-02T06:21:47.707Z,52.1
2019-01-02T06:26:46.051Z,52.1
2019-01-02T06:31:44.434Z,52.1
2019-01-02T06:36:42.205Z,52.1
2019-01-02T06:41:40.723Z,52.1
2019-01-02T06:46:38.818Z,52.1
2019-01-02T06:51:37.094Z,52.1
2019-01-02T06:56:35.470Z,52.1
2019-01-02T07:01:33.652Z,52.1
2019-01-02T07:06:31.721Z,52.1
2019-01-02T07:11:29.998Z,52.2
2019-01-02T07:16:28.469Z,52.2
2019-01-02T07:21:26.588Z,52.2
2019-01-02T07:26:25.027Z,52.2
2019-01-02T07:31:23.182Z,52.2
2019-01-02T07:36:21.666Z,52.2
2019-01-02T07:41:19.810Z,52.2
2019-01-02T07:46:18.315Z,52.2
2019-01-02T07:51:16.569Z,52.3
2019-01-02T07:56:14.687Z,52.3
2019-01-02T08:01:13.104Z,52.2
2019-01-02T08:06:11.441Z,52.3
2019-01-02T08:11:09.887Z,52.3
2019-01-02T08:16:08.007Z,52.3
2019-01-02T08:21:06.189Z,52.3
2019-01-02T08:26:04.575Z,52.4
2019-01-02T08:31:02.874Z,52.4
2019-01-02T08:36:00.962Z,52.4
2019-01-02T08:40:59.153Z,52.4
2019-01-02T08:45:57.462Z,52.5
2019-01-02T08:50:56.158Z,52.4
2019-01-02T08:55:54.332Z,52.4
2019-01-02T09:00:52.932Z,52.4
2019-01-02T09:05:50.640Z,52.4
2019-01-02T09:10:48.789Z,52.4
2019-01-02T09:15:47.065Z,52.4
2019-01-02T09:20:45.442Z,52.4
2019-01-02T09:25:43.524Z,52.4
2019-01-02T09:30:41.781Z,52.4
2019-01-02T09:35:40.236Z,52.5
2019-01-02T09:40:38.596Z,52.5
2019-01-02T09:45:36.964Z,52.6
2019-01-02T09:50:35.242Z,52.6
2019-01-02T09:55:33.592Z,52.7
2019-01-02T10:00:31.795Z,52.7
2019-01-02T10:05:30.077Z,52.8
2019-01-02T10:10:28.502Z,52.9
2019-01-02T10:15:26.746Z,52.9
2019-01-02T10:20:24.876Z,53
2019-01-02T10:25:23.243Z,53
2019-01-02T10:30:21.193Z,53.1
2019-01-02T10:35:19.534Z,53.1
2019-01-02T10:40:17.971Z,53.2
2019-01-02T10:45:16.185Z,53.2
2019-01-02T10:50:13.996Z,53.3
2019-01-02T10:55:11.708Z,53.4
2019-01-02T11:00:10.161Z,53.4
2019-01-02T11:05:08.502Z,53.5
2019-01-02T11:10:06.739Z,53.5
2019-01-02T11:15:05.170Z,53.6
2019-01-02T11:20:03.566Z,53.6
2019-01-02T11:25:01.958Z,53.7
2019-01-02T11:30:00.343Z,53.6
2019-01-02T11:34:58.814Z,53.7
2019-01-02T11:39:57.274Z,53.8
2019-01-02T11:44:55.668Z,53.8
2019-01-02T11:49:53.435Z,53.8
2019-01-02T11:54:51.903Z,53.9
2019-01-02T11:59:50.412Z,53.9
2019-01-02T12:04:48.709Z,53.9
2019-01-02T12:09:46.937Z,53.9
2019-01-02T12:14:45.009Z,53.9
2019-01-02T12:19:43.662Z,54
2019-01-02T12:24:42.068Z,54
2019-01-02T12:29:40.428Z,54
2019-01-02T12:34:38.728Z,54
2019-01-02T12:39:36.490Z,54
2019-01-02T12:44:35.078Z,54.1
2019-01-02T12:49:33.202Z,54
2019-01-02T12:54:31.504Z,54.1
2019-01-02T12:59:29.913Z,54.1
2019-01-02T13:04:28.316Z,54
2019-01-02T13:09:26.709Z,54
2019-01-02T13:14:24.929Z,54
2019-01-02T13:19:23.470Z,54
2019-01-02T13:24:21.867Z,54
2019-01-02T13:29:20.378Z,54
2019-01-02T13:34:18.860Z,54
2019-01-02T13:39:16.878Z,54
2019-01-02T13:44:15.365Z,53.9
2019-01-02T13:49:13.803Z,53.9
2019-01-02T13:54:12.197Z,53.8
2019-01-02T13:59:10.550Z,53.8
2019-01-02T14:04:08.867Z,53.8
2019-01-02T14:09:07.308Z,53.8
2019-01-02T14:14:05.657Z,53.8
2019-01-02T14:19:03.969Z,53.7
2019-01-02T14:24:02.295Z,53.8
2019-01-02T14:29:00.717Z,53.7
2019-01-02T14:33:58.950Z,53.7
2019-01-02T14:38:57.175Z,53.7
2019-01-02T14:43:55.280Z,53.7
2019-01-02T14:48:53.568Z,53.7
2019-01-02T14:53:51.792Z,53.7
2019-01-02T14:58:50.147Z,53.7
2019-01-02T15:03:48.410Z,53.7
2019-01-02T15:08:46.773Z,53.7
2019-01-02T15:13:44.516Z,53.7
2019-01-02T15:18:42.902Z,53.7
2019-01-02T15:23:41.330Z,53.7
2019-01-02T15:28:39.676Z,53.6
2019-01-02T15:33:38.117Z,53.6
2019-01-02T15:38:36.311Z,53.6
2019-01-02T15:43:34.699Z,53.6
2019-01-02T15:48:33.109Z,53.5
2019-01-02T15:53:31.035Z,53.5
2019-01-02T15:58:29.429Z,53.5
2019-01-02T16:03:27.773Z,53.5
2019-01-02T16:08:25.935Z,53.5
2019-01-02T16:13:24.056Z,53.5
2019-01-02T16:18:22.588Z,53.4
2019-01-02T16:23:20.501Z,53.5
2019-01-02T16:28:18.442Z,53.4
2019-01-02T16:33:16.975Z,53.4
2019-01-02T16:38:15.287Z,53.3
2019-01-02T16:43:13.303Z,53.3
2019-01-02T16:48:11.681Z,53.3
2019-01-02T16:53:10.047Z,53.3
2019-01-02T16:58:08.605Z,53.2
2019-01-02T17:03:06.845Z,53.3
2019-01-02T17:08:05.237Z,53.2
2019-01-02T17:13:03.036Z,53.3
2019-01-02T17:18:01.312Z,53.2
2019-01-02T17:22:59.468Z,53.3
2019-01-02T17:27:57.879Z,53.2
2019-01-02T17:32:56.171Z,53.2
2019-01-02T17:37:54.502Z,53.3
2019-01-02T17:42:52.963Z,53.2
2019-01-02T17:47:51.076Z,53.2
2019-01-02T17:52:49.508Z,53.2
2019-01-02T17:57:48.158Z,53.2
2019-01-02T18:02:46.461Z,53.3
2019-01-02T18:07:44.997Z,53.3
2019-01-02T18:12:43.138Z,53.3
2019-01-02T18:17:41.663Z,53.3
2019-01-02T18:22:39.494Z,53.3
2019-01-02T18:27:38.120Z,53.4
2019-01-02T18:32:36.459Z,53.4
2019-01-02T18:37:35.172Z,53.4
2019-01-02T18:42:33.619Z,53.4
2019-01-02T18:47:31.938Z,53.4
2019-01-02T18:52:30.331Z,53.4
2019-01-02T18:57:28.683Z,53.4
2019-01-02T19:02:27.021Z,53.4
2019-01-02T19:07:25.475Z,53.4
2019-01-02T19:12:23.552Z,53.4
2019-01-02T19:17:21.730Z,53.4
2019-01-02T19:22:19.838Z,53.4
2019-01-02T19:27:17.574Z,53.4
2019-01-02T19:32:15.939Z,53.4
2019-01-02T19:37:14.196Z,53.4
2019-01-02T19:42:12.489Z,53.4
2019-01-02T19:47:11.071Z,53.4
2019-01-02T19:52:09.747Z,53.4
2019-01-02T19:57:08.151Z,53.4
2019-01-02T20:02:06.465Z,53.4
2019-01-02T20:07:05.104Z,53.4
2019-01-02T20:12:03.499Z,53.4
2019-01-02T20:17:01.974Z,53.4
2019-01-02T20:22:00.369Z,53.4
2019-01-02T20:26:58.793Z,53.4
2019-01-02T20:31:57.139Z,53.4
2019-01-02T20:36:55.015Z,53.4
2019-01-02T20:41:53.410Z,53.4
2019-01-02T20:46:51.649Z,53.4
2019-01-02T20:51:49.463Z,53.4
2019-01-02T20:56:47.417Z,53.4
2019-01-02T21:01:45.391Z,53.4
2019-01-02T21:06:43.797Z,53.4
2019-01-02T21:11:42.119Z,53.4
2019-01-02T21:16:40.634Z,53.4
2019-01-02T21:21:38.478Z,53.4
2019-01-02T21:26:36.505Z,53.4
2019-01-02T21:31:34.552Z,53.4
2019-01-02T21:36:33.096Z,53.4
2019-01-02T21:41:31.595Z,53.4
2019-01-02T21:46:29.806Z,53.4
2019-01-02T21:51:28.190Z,53.4
2019-01-02T21:56:26.815Z,53.3
2019-01-02T22:01:24.805Z,53.4
2019-01-02T22:06:23.316Z,53.3
2019-01-02T22:11:21.885Z,53.3
2019-01-02T22:16:20.284Z,53.3
2019-01-02T22:21:18.177Z,53.3
2019-01-02T22:26:16.542Z,53.3
2019-01-02T22:31:14.820Z,53.3
2019-01-02T22:36:13.225Z,53.4
2019-01-02T22:41:11.600Z,53.3
2019-01-02T22:46:09.813Z,53.3
2019-01-02T22:51:08.076Z,53.2
2019-01-02T22:56:07.059Z,53.2
2019-01-02T23:01:05.225Z,53.2
2019-01-02T23:06:03.174Z,53.2
2019-01-02T23:11:01.707Z,53.2
2019-01-02T23:15:59.305Z,53.2
2019-01-02T23:20:57.458Z,53.2
2019-01-02T23:25:56.027Z,53.2
2019-01-02T23:30:54.316Z,53.2
2019-01-02T23:35:52.543Z,53.2
2019-01-02T23:40:50.953Z,53.2
2019-01-02T23:45:49.211Z,53.2
2019-01-02T23:50:47.556Z,53.2
2019-01-02T23:55:45.608Z,53.2
